Time;durP1;ratioP1;P1;durP2;ratioP2;P2;SDS_P1;SDS_P2;PMS_P1;PMS_P2;Temp;Humidity;BMP_temperature;BMP_pressure;BME280_temperature;BME280_humidity;BME280_pressure;Samples;Min_cycle;Max_cycle;Signal;HPM_P1;HPM_P2
2022/11/16 00:01:22;;;;;;;5.00;3.28;;;12.50;99.90;;;;;;5060913;28;20025;-77
2022/11/16 00:03:50;;;;;;;5.38;2.65;;;12.50;99.90;;;;;;5068243;28;20021;-77
2022/11/16 00:06:16;;;;;;;6.15;3.63;;;12.50;99.90;;;;;;5063362;28;20552;-77
2022/11/16 00:09:20;;;;;;;9.35;3.80;;;12.40;99.90;;;;;;5071728;28;20448;-77
2022/11/16 00:11:30;;;;;;;8.07;3.70;;;12.40;99.90;;;;;;5073248;28;20047;-77
2022/11/16 00:13:56;;;;;;;7.90;3.78;;;12.40;99.90;;;;;;5071109;28;20024;-77
2022/11/16 00:16:22;;;;;;;13.98;6.72;;;12.40;99.90;;;;;;5074995;28;20484;-77
2022/11/16 00:18:48;;;;;;;13.10;8.73;;;12.40;99.90;;;;;;5064451;28;20032;-76
2022/11/16 00:21:13;;;;;;;12.07;8.60;;;12.40;99.90;;;;;;5075177;28;20028;-77
2022/11/16 00:23:39;;;;;;;16.42;8.23;;;12.40;99.90;;;;;;5061523;28;20060;-77
2022/11/16 00:26:13;;;;;;;6.72;2.90;;;12.40;99.90;;;;;;5070581;28;20186;-77
2022/11/16 00:28:38;;;;;;;7.20;3.25;;;12.40;99.90;;;;;;5076298;28;20013;-77
2022/11/16 00:31:06;;;;;;;5.13;3.25;;;12.40;99.90;;;;;;5067057;28;20021;-76
2022/11/16 00:33:33;;;;;;;13.38;5.88;;;12.40;99.90;;;;;;5075584;28;20468;-77
2022/11/16 00:36:04;;;;;;;5.82;3.08;;;12.50;99.90;;;;;;5062696;28;20033;-76
2022/11/16 00:38:29;;;;;;;;;;;12.50;99.90;;;;;;5073561;28;20459;-77
2022/11/16 00:40:55;;;;;;;7.43;2.92;;;12.50;99.90;;;;;;5071900;28;19955;-77
2022/11/16 00:43:22;;;;;;;8.15;4.13;;;12.40;99.90;;;;;;5062826;28;20033;-78
2022/11/16 00:45:47;;;;;;;7.95;3.55;;;12.40;99.90;;;;;;5064602;28;20037;-77
2022/11/16 00:48:13;;;;;;;3.60;2.65;;;12.40;99.90;;;;;;5072032;28;20052;-78
2022/11/16 00:50:39;;;;;;;5.13;3.65;;;12.40;99.90;;;;;;5062321;28;20064;-77
2022/11/16 00:53:06;;;;;;;37.92;25.13;;;12.40;99.90;;;;;;5076610;28;20032;-77
2022/11/16 00:55:32;;;;;;;32.67;18.45;;;12.40;99.90;;;;;;5066058;28;20028;-77
2022/11/16 00:57:59;;;;;;;34.38;20.55;;;12.40;99.90;;;;;;5072944;28;20537;-77
2022/11/16 01:00:25;;;;;;;12.40;6.88;;;12.40;99.90;;;;;;5068867;28;20060;-77
2022/11/16 01:02:53;;;;;;;14.98;9.80;;;12.40;99.90;;;;;;5072434;28;20024;-78
2022/11/16 01:05:21;;;;;;;38.50;22.95;;;12.40;99.90;;;;;;5070435;28;20120;-78
2022/11/16 01:07:47;;;;;;;6.35;3.97;;;12.40;99.90;;;;;;5067835;28;20021;-77
2022/11/16 01:10:16;;;;;;;6.80;4.75;;;12.40;99.90;;;;;;5070809;28;20032;-77
2022/11/16 01:12:43;;;;;;;5.25;3.22;;;12.50;99.90;;;;;;5064262;28;20061;-77
2022/11/16 01:15:10;;;;;;;10.43;3.38;;;12.50;99.90;;;;;;5069291;28;20068;-77
2022/11/16 01:17:40;;;;;;;20.85;12.18;;;12.40;99.90;;;;;;5070689;28;20033;-77
2022/11/16 01:20:10;;;;;;;57.50;33.23;;;12.40;99.90;;;;;;5063138;28;20052;-77
2022/11/16 01:22:38;;;;;;;19.27;10.20;;;12.50;99.90;;;;;;5068413;28;20481;-77
2022/11/16 01:25:04;;;;;;;16.75;8.85;;;12.40;99.90;;;;;;5066852;28;20655;-77
2022/11/16 01:27:30;;;;;;;11.55;5.32;;;12.40;99.90;;;;;;5067485;28;20032;-77
2022/11/16 01:29:56;;;;;;;12.15;3.63;;;12.40;99.90;;;;;;5066087;28;20482;-77
2022/11/16 01:32:22;;;;;;;5.75;3.30;;;12.40;99.90;;;;;;5077311;28;20028;-77
2022/11/16 01:34:49;;;;;;;10.55;6.55;;;12.40;99.90;;;;;;5063298;28;20025;-77
2022/11/16 01:37:15;;;;;;;15.77;7.03;;;12.40;99.90;;;;;;5074875;28;20017;-77
2022/11/16 01:39:41;;;;;;;26.85;11.80;;;12.40;99.90;;;;;;5067939;28;20056;-77
2022/11/16 01:42:13;;;;;;;6.38;3.85;;;12.40;99.90;;;;;;5066116;28;20037;-77
2022/11/16 01:44:38;;;;;;;6.90;3.85;;;12.40;99.90;;;;;;5073136;28;20443;-77
2022/11/16 01:47:10;;;;;;;11.93;4.88;;;12.40;99.90;;;;;;5075364;28;20081;-77
2022/11/16 01:49:48;;;;;;;5.25;3.30;;;12.40;99.90;;;;;;5064181;28;20028;-77
2022/11/16 01:52:19;;;;;;;8.98;3.70;;;12.40;99.90;;;;;;5068658;28;20024;-77
2022/11/16 01:54:47;;;;;;;8.40;3.65;;;12.40;99.90;;;;;;5070837;28;20029;-77
2022/11/16 01:57:22;;;;;;;67.82;22.65;;;12.40;99.90;;;;;;5063018;28;20029;-77
2022/11/16 01:59:52;;;;;;;14.88;4.57;;;12.40;99.90;;;;;;5070852;28;20032;-76
2022/11/16 02:02:18;;;;;;;4.78;3.15;;;12.40;99.90;;;;;;5059432;28;20021;-77
2022/11/16 02:04:46;;;;;;;19.02;5.88;;;12.40;99.90;;;;;;5070875;28;20507;-79
2022/11/16 02:07:18;;;;;;;19.65;11.32;;;12.40;99.90;;;;;;5065614;28;20032;-77
2022/11/16 02:10:21;;;;;;;21.42;13.43;;;12.30;99.90;;;;;;5067942;28;20055;-76
2022/11/16 02:13:06;;;;;;;8.02;3.45;;;12.30;99.90;;;;;;5056907;28;20031;-76
2022/11/16 02:15:43;;;;;;;9.18;3.70;;;12.30;99.90;;;;;;5068756;28;20036;-77
2022/11/16 02:18:25;;;;;;;8.75;4.45;;;12.30;99.90;;;;;;5066665;28;20063;-78
2022/11/16 02:21:23;;;;;;;8.32;5.97;;;12.30;99.90;;;;;;5071913;28;20028;-77
2022/11/16 02:24:06;;;;;;;7.53;3.15;;;12.20;99.90;;;;;;5049576;28;20045;-77
2022/11/16 02:26:55;;;;;;;7.30;3.63;;;12.20;99.90;;;;;;5069109;28;20025;-76
2022/11/16 02:29:49;;;;;;;10.00;3.00;;;12.10;99.90;;;;;;5065070;28;20025;-78
2022/11/16 02:32:28;;;;;;;8.80;4.05;;;12.10;99.90;;;;;;5062949;28;20036;-77
2022/11/16 02:35:08;;;;;;;13.00;5.90;;;12.00;99.90;;;;;;5063531;28;20021;-77
2022/11/16 02:37:39;;;;;;;14.67;5.37;;;11.90;99.90;;;;;;5075217;28;20025;-77
2022/11/16 02:40:09;;;;;;;14.40;5.40;;;11.70;99.90;;;;;;5065288;28;20069;-77
2022/11/16 02:42:42;;;;;;;8.27;4.20;;;11.60;99.90;;;;;;5065736;28;20115;-77
2022/11/16 02:45:11;;;;;;;8.82;4.38;;;11.60;99.90;;;;;;5061247;28;20081;-77
2022/11/16 02:47:40;;;;;;;7.65;4.22;;;11.50;99.90;;;;;;5070192;28;20396;-77
2022/11/16 02:50:12;;;;;;;12.43;4.18;;;11.50;99.90;;;;;;5059485;28;20051;-77
2022/11/16 02:52:38;;;;;;;16.17;5.00;;;11.40;99.90;;;;;;5064818;28;20508;-77
2022/11/16 02:55:05;;;;;;;6.03;3.50;;;11.30;99.90;;;;;;5072482;28;20375;-77
2022/11/16 02:57:49;;;;;;;13.85;3.78;;;11.30;99.90;;;;;;5064794;28;20029;-77
2022/11/16 03:00:22;;;;;;;11.18;3.60;;;11.20;99.90;;;;;;5070296;28;20021;-77
2022/11/16 03:02:54;;;;;;;14.55;4.82;;;11.20;99.90;;;;;;5062975;28;20025;-77
2022/11/16 03:05:30;;;;;;;11.43;3.97;;;11.20;99.90;;;;;;5072712;28;20516;-77
2022/11/16 03:08:17;;;;;;;11.40;3.55;;;11.20;99.90;;;;;;5070779;28;20025;-77
2022/11/16 03:13:34;;;;;;;11.77;4.38;;;11.30;99.90;;;;;;5065241;28;20074;-75
2022/11/16 03:16:07;;;;;;;12.13;3.30;;;11.30;99.90;;;;;;5074057;28;20049;-76
2022/11/16 03:18:33;;;;;;;13.23;3.63;;;11.30;99.90;;;;;;5066727;28;20025;-76
2022/11/16 03:21:22;;;;;;;15.35;4.13;;;11.40;99.90;;;;;;5067031;28;20018;-76
2022/11/16 03:23:48;;;;;;;6.63;3.85;;;11.30;99.90;;;;;;5067820;28;20048;-76
2022/11/16 03:26:19;;;;;;;13.55;3.70;;;11.30;99.90;;;;;;5071400;28;20115;-76
2022/11/16 03:28:59;;;;;;;9.43;3.88;;;11.30;99.90;;;;;;5078417;28;20031;-76
2022/11/16 03:31:39;;;;;;;7.78;3.97;;;11.40;99.90;;;;;;5062966;28;20049;-76
2022/11/16 03:34:11;;;;;;;13.23;3.50;;;11.40;99.90;;;;;;5065199;28;20063;-76
2022/11/16 03:36:41;;;;;;;5.38;3.20;;;11.40;99.90;;;;;;5073943;28;20078;-76
2022/11/16 03:39:19;;;;;;;7.10;3.47;;;11.50;99.90;;;;;;5073350;28;20028;-76
2022/11/16 03:41:46;;;;;;;18.40;8.18;;;11.40;99.90;;;;;;5075046;28;20044;-76
2022/11/16 03:44:15;;;;;;;10.93;3.55;;;11.40;99.90;;;;;;5064725;28;20033;-76
2022/11/16 03:46:43;;;;;;;6.05;3.63;;;11.30;99.90;;;;;;5072383;28;20024;-76
2022/11/16 03:49:09;;;;;;;14.70;4.30;;;11.40;99.90;;;;;;5065487;28;20035;-75
2022/11/16 03:51:35;;;;;;;12.18;4.43;;;11.30;99.90;;;;;;5069648;28;20021;-76
2022/11/16 03:54:01;;;;;;;11.00;3.58;;;11.40;99.90;;;;;;5072509;28;20049;-76
2022/11/16 03:56:27;;;;;;;7.75;2.95;;;11.30;99.90;;;;;;5069556;28;20051;-76
2022/11/16 03:58:53;;;;;;;7.95;2.92;;;11.40;99.90;;;;;;5072603;28;20040;-76
2022/11/16 04:01:18;;;;;;;10.13;3.20;;;11.40;99.90;;;;;;5061722;28;20017;-76
2022/11/16 04:03:44;;;;;;;7.38;3.40;;;11.40;99.90;;;;;;5069760;28;20060;-76
2022/11/16 04:25:56;;;;;;;12.25;6.45;;;11.20;99.90;;;;;;5070244;28;20063;-76
2022/11/16 04:28:28;;;;;;;5.25;3.05;;;11.20;99.90;;;;;;5074208;28;20035;-75
2022/11/16 04:39:20;;;;;;;11.15;3.97;;;10.90;99.90;;;;;;5072677;28;20032;-75
2022/11/16 04:47:18;;;;;;;6.80;2.97;;;10.60;99.90;;;;;;5072019;28;20089;-75
2022/11/16 04:49:44;;;;;;;4.75;2.78;;;10.50;99.90;;;;;;5062928;28;20024;-75
2022/11/16 04:52:10;;;;;;;10.88;3.42;;;10.40;99.90;;;;;;5065972;28;20017;-75
2022/11/16 04:54:35;;;;;;;7.82;3.40;;;10.30;99.90;;;;;;5071700;28;20025;-75
2022/11/16 04:57:01;;;;;;;7.22;3.13;;;10.20;99.90;;;;;;5064016;28;20021;-75
2022/11/16 04:59:27;;;;;;;6.00;3.17;;;10.20;99.90;;;;;;5060423;28;20032;-75
2022/11/16 05:02:08;;;;;;;12.43;3.80;;;10.20;99.90;;;;;;5063028;28;20100;-76
2022/11/16 05:04:40;;;;;;;7.13;3.15;;;10.10;99.90;;;;;;5070174;28;20024;-76
2022/11/16 05:07:11;;;;;;;7.82;4.00;;;10.00;99.90;;;;;;5066280;28;20037;-76
2022/11/16 05:09:41;;;;;;;;;;;10.00;99.90;;;;;;5070289;28;20031;-76
2022/11/16 05:12:17;;;;;;;11.43;3.33;;;10.00;99.90;;;;;;5067002;28;20372;-76
2022/11/16 05:14:44;;;;;;;8.95;3.78;;;10.00;99.90;;;;;;5067758;28;20112;-76
2022/11/16 05:17:10;;;;;;;12.95;4.43;;;10.00;99.90;;;;;;5072142;28;20437;-76
2022/11/16 05:22:21;;;;;;;13.75;3.78;;;10.10;99.90;;;;;;5059825;28;20082;-76
2022/11/16 05:24:47;;;;;;;10.32;4.38;;;10.10;99.90;;;;;;5061873;28;20519;-76
2022/11/16 05:27:17;;;;;;;7.18;3.95;;;10.00;99.90;;;;;;5073181;28;20036;-76
2022/11/16 05:29:46;;;;;;;8.87;4.07;;;10.00;99.90;;;;;;5073631;28;20037;-76
2022/11/16 05:32:12;;;;;;;10.50;5.05;;;10.00;99.90;;;;;;5072153;28;20485;-75
2022/11/16 05:34:39;;;;;;;12.30;4.13;;;9.90;99.90;;;;;;5072866;28;20115;-76
2022/11/16 05:37:05;;;;;;;8.88;4.13;;;9.90;99.90;;;;;;5074216;28;20027;-76
2022/11/16 05:39:30;;;;;;;11.90;3.92;;;9.90;99.90;;;;;;5072105;28;20107;-76
2022/11/16 05:41:56;;;;;;;9.73;3.30;;;9.80;99.90;;;;;;5054351;28;20071;-76
2022/11/16 05:44:23;;;;;;;9.18;3.50;;;9.80;99.90;;;;;;5067489;28;20063;-76
2022/11/16 05:46:49;;;;;;;6.40;3.58;;;9.80;99.90;;;;;;5069210;28;20028;-76
2022/11/16 05:49:15;;;;;;;13.00;3.47;;;9.80;99.90;;;;;;5073758;28;20024;-75
2022/11/16 05:51:43;;;;;;;15.38;4.15;;;9.80;99.90;;;;;;5069326;28;20488;-76
2022/11/16 05:54:17;;;;;;;10.15;4.05;;;9.70;99.90;;;;;;5068222;28;20025;-76
2022/11/16 05:56:43;;;;;;;12.85;3.85;;;9.70;99.90;;;;;;5069767;28;20033;-76
2022/11/16 05:59:12;;;;;;;8.13;3.13;;;9.60;99.90;;;;;;5068401;28;20512;-76
2022/11/16 06:01:38;;;;;;;13.48;4.22;;;9.60;99.90;;;;;;5067662;28;20017;-77
2022/11/16 06:04:04;;;;;;;6.78;3.80;;;9.60;99.90;;;;;;5072102;28;20467;-77
2022/11/16 06:06:30;;;;;;;7.95;4.07;;;9.60;99.90;;;;;;5067399;28;20028;-77
2022/11/16 06:08:56;;;;;;;10.30;3.63;;;9.50;99.90;;;;;;5074248;28;20063;-76
2022/11/16 06:11:22;;;;;;;11.23;3.92;;;9.50;99.90;;;;;;5068324;28;20021;-77
2022/11/16 06:13:48;;;;;;;7.68;4.35;;;9.40;99.90;;;;;;5074314;28;20020;-77
2022/11/16 06:16:14;;;;;;;13.13;4.10;;;9.40;99.90;;;;;;5059271;28;20029;-77
2022/11/16 06:18:42;;;;;;;15.02;4.07;;;9.30;99.90;;;;;;5061691;28;20025;-77
2022/11/16 06:21:09;;;;;;;14.93;4.45;;;9.30;99.90;;;;;;5061963;28;20103;-76
2022/11/16 06:23:35;;;;;;;7.95;4.40;;;9.30;99.90;;;;;;5061773;28;20539;-77
2022/11/16 06:26:01;;;;;;;12.02;5.25;;;9.30;99.90;;;;;;5060740;28;20060;-75
2022/11/16 06:28:27;;;;;;;11.70;4.95;;;9.20;99.90;;;;;;5069692;28;20396;-76
2022/11/16 06:30:53;;;;;;;18.38;5.28;;;9.20;99.90;;;;;;5061551;28;20025;-76
2022/11/16 06:33:19;;;;;;;12.18;5.30;;;9.10;99.90;;;;;;5057780;28;20070;-76
2022/11/16 06:35:45;;;;;;;12.93;5.75;;;9.20;99.90;;;;;;5069445;28;20032;-76
2022/11/16 06:38:17;;;;;;;12.10;5.15;;;9.10;99.90;;;;;;5070012;28;20033;-76
2022/11/16 06:40:44;;;;;;;14.38;5.78;;;9.10;99.90;;;;;;5062185;28;20025;-76
2022/11/16 06:43:11;;;;;;;10.95;4.57;;;9.10;99.90;;;;;;5062641;28;20032;-76
2022/11/16 06:45:37;;;;;;;12.02;4.97;;;9.10;99.90;;;;;;5062555;28;20840;-76
2022/11/16 06:48:03;;;;;;;13.82;5.05;;;9.10;99.90;;;;;;5071374;28;20021;-75
2022/11/16 06:50:29;;;;;;;13.07;4.20;;;9.10;99.90;;;;;;5067782;28;20025;-76
2022/11/16 06:52:55;;;;;;;10.93;4.63;;;9.00;99.90;;;;;;5070172;28;20132;-76
2022/11/16 06:55:20;;;;;;;21.65;4.60;;;9.00;99.90;;;;;;5056970;28;20139;-76
2022/11/16 06:57:46;;;;;;;11.80;3.97;;;9.10;99.90;;;;;;5071380;28;20122;-76
2022/11/16 07:00:13;;;;;;;10.32;4.38;;;9.10;99.90;;;;;;5069780;28;20360;-77
2022/11/16 07:02:39;;;;;;;13.65;4.07;;;9.00;99.90;;;;;;5063743;28;20052;-76
2022/11/16 07:05:06;;;;;;;14.23;4.93;;;9.00;99.90;;;;;;5066586;28;20108;-76
2022/11/16 07:07:32;;;;;;;8.82;4.45;;;9.00;99.90;;;;;;5064613;28;20063;-77
2022/11/16 07:09:58;;;;;;;10.30;4.07;;;8.90;99.90;;;;;;5067150;28;20052;-77
2022/11/16 07:12:24;;;;;;;17.20;6.20;;;8.90;99.90;;;;;;5070539;28;20435;-77
2022/11/16 07:14:50;;;;;;;14.07;7.72;;;8.90;99.90;;;;;;5060944;28;20096;-77
2022/11/16 07:17:15;;;;;;;13.90;6.07;;;8.90;99.90;;;;;;5062549;28;20067;-77
2022/11/16 07:19:41;;;;;;;19.92;10.27;;;8.90;99.90;;;;;;5056042;28;20025;-77
2022/11/16 07:22:07;;;;;;;13.70;6.80;;;8.90;99.90;;;;;;5060933;28;20044;-77
2022/11/16 07:24:33;;;;;;;25.50;10.50;;;8.90;99.90;;;;;;5072593;28;20052;-77
2022/11/16 07:26:59;;;;;;;16.50;6.68;;;9.00;99.90;;;;;;5066572;28;20028;-76
2022/11/16 07:29:24;;;;;;;22.23;10.32;;;9.00;99.90;;;;;;5064429;28;20013;-77
2022/11/16 07:31:50;;;;;;;121.32;46.95;;;9.10;99.90;;;;;;5069820;28;20025;-77
2022/11/16 07:34:16;;;;;;;382.70;151.75;;;9.10;99.90;;;;;;5068762;28;20052;-76
2022/11/16 07:36:42;;;;;;;222.52;91.13;;;9.20;99.90;;;;;;5064992;28;20024;-76
2022/11/16 07:39:09;;;;;;;109.50;45.35;;;9.30;99.90;;;;;;5058812;28;20087;-77
2022/11/16 07:41:37;;;;;;;477.95;212.65;;;9.30;99.90;;;;;;5065739;28;20507;-77
2022/11/16 07:44:03;;;;;;;254.90;102.65;;;9.40;99.90;;;;;;5061403;28;20021;-77
2022/11/16 07:46:29;;;;;;;63.95;27.25;;;9.40;99.90;;;;;;5061701;28;20049;-77
2022/11/16 07:48:56;;;;;;;498.02;252.40;;;9.40;99.90;;;;;;5060863;28;20021;-77
2022/11/16 07:51:22;;;;;;;372.75;167.88;;;9.50;99.90;;;;;;5064182;28;20029;-77
2022/11/16 07:53:54;;;;;;;507.45;261.92;;;9.50;99.90;;;;;;5061451;28;20025;-77
2022/11/16 07:56:20;;;;;;;226.57;102.57;;;9.60;99.90;;;;;;5068528;28;20040;-77
2022/11/16 07:58:46;;;;;;;78.38;39.00;;;9.70;99.90;;;;;;5069873;28;20048;-77
2022/11/16 08:01:14;;;;;;;95.65;45.60;;;9.70;99.90;;;;;;5068515;28;20051;-77
2022/11/16 08:03:41;;;;;;;22.60;10.32;;;9.80;99.90;;;;;;5061953;28;20044;-77
2022/11/16 08:06:17;;;;;;;18.50;10.48;;;9.80;99.90;;;;;;5065355;28;20047;-77
2022/11/16 08:08:43;;;;;;;14.23;9.27;;;9.90;99.90;;;;;;5068025;28;20051;-77
2022/11/16 08:11:11;;;;;;;26.25;13.88;;;10.00;99.90;;;;;;5068395;28;20424;-77
2022/11/16 08:13:39;;;;;;;386.70;187.65;;;10.10;99.90;;;;;;5070453;28;20378;-77
2022/11/16 08:16:09;;;;;;;468.33;261.98;;;10.20;99.90;;;;;;5069048;28;20121;-77
2022/11/16 08:18:36;;;;;;;171.75;80.90;;;10.30;99.90;;;;;;5064127;28;20029;-75
2022/11/16 08:21:02;;;;;;;100.57;46.25;;;10.30;99.90;;;;;;5075677;28;20103;-75
2022/11/16 08:23:29;;;;;;;265.75;124.95;;;10.40;99.90;;;;;;5071183;28;20545;-76
2022/11/16 08:25:59;;;;;;;49.90;25.30;;;10.40;99.90;;;;;;5069805;28;20028;-76
2022/11/16 08:28:26;;;;;;;23.50;8.13;;;10.60;99.90;;;;;;5061973;28;20178;-77
2022/11/16 08:30:52;;;;;;;45.90;20.65;;;10.70;99.90;;;;;;5070136;28;20028;-76
2022/11/16 08:33:20;;;;;;;20.60;8.00;;;10.70;99.90;;;;;;5060968;28;20025;-77
2022/11/16 08:35:47;;;;;;;172.98;82.40;;;10.80;99.90;;;;;;5064805;28;20029;-76
2022/11/16 08:38:13;;;;;;;224.60;115.18;;;10.90;99.90;;;;;;5074027;28;20021;-76
2022/11/16 08:40:39;;;;;;;53.17;25.55;;;11.00;99.90;;;;;;5068474;28;20029;-76
2022/11/16 08:43:05;;;;;;;20.30;8.07;;;11.00;99.90;;;;;;5070293;28;20052;-76
2022/11/16 08:45:32;;;;;;;18.23;8.23;;;11.20;99.90;;;;;;5069387;28;20554;-77
2022/11/16 08:47:59;;;;;;;269.88;106.88;;;11.30;99.90;;;;;;5071651;28;20017;-76
2022/11/16 08:50:25;;;;;;;18.52;9.52;;;11.30;99.90;;;;;;5069222;28;20104;-75
2022/11/16 08:52:51;;;;;;;114.75;51.60;;;11.40;99.90;;;;;;5071089;28;20024;-77
2022/11/16 08:55:17;;;;;;;50.58;23.27;;;11.50;99.90;;;;;;5069154;28;20021;-76
2022/11/16 08:57:43;;;;;;;127.25;64.53;;;11.60;99.90;;;;;;5067400;28;20111;-76
2022/11/16 09:00:10;;;;;;;15.10;6.22;;;11.60;99.90;;;;;;5074810;28;20077;-76
2022/11/16 09:02:37;;;;;;;90.05;41.65;;;11.70;99.90;;;;;;5071892;28;20393;-76
2022/11/16 09:05:04;;;;;;;6.95;4.97;;;11.70;99.90;;;;;;5068612;28;20089;-76
2022/11/16 09:07:30;;;;;;;10.13;5.90;;;11.80;99.90;;;;;;5071496;28;20032;-76
2022/11/16 09:09:56;;;;;;;149.02;63.85;;;11.90;99.90;;;;;;5070569;28;20024;-77
2022/11/16 09:12:21;;;;;;;47.67;20.45;;;11.90;99.90;;;;;;5070021;28;20028;-76
2022/11/16 09:14:47;;;;;;;152.50;64.90;;;11.90;99.90;;;;;;5068544;28;20021;-76
2022/11/16 09:17:13;;;;;;;15.57;6.07;;;11.90;99.90;;;;;;5063461;28;20032;-75
2022/11/16 09:19:39;;;;;;;17.48;7.75;;;12.10;99.90;;;;;;5062294;28;20025;-76
2022/11/16 09:22:05;;;;;;;83.90;35.63;;;12.10;99.90;;;;;;5070774;28;20428;-76
2022/11/16 09:24:31;;;;;;;24.50;14.50;;;12.10;99.90;;;;;;5068642;28;20076;-78
2022/11/16 09:27:00;;;;;;;30.80;18.75;;;12.20;99.90;;;;;;5070125;28;20056;-77
2022/11/16 09:29:29;;;;;;;180.73;99.55;;;12.30;99.90;;;;;;5083782;28;20028;-83
2022/11/16 09:31:57;;;;;;;20.70;12.73;;;12.30;99.90;;;;;;5073371;28;20021;-82
2022/11/16 09:34:24;;;;;;;20.15;12.45;;;12.30;99.90;;;;;;5070026;28;20016;-76
2022/11/16 09:36:50;;;;;;;15.70;12.18;;;12.40;99.90;;;;;;5070203;28;20040;-76
2022/11/16 09:39:16;;;;;;;16.40;11.25;;;12.50;99.90;;;;;;5072295;28;20028;-74
2022/11/16 09:41:55;;;;;;;41.55;26.35;;;12.60;99.90;;;;;;5067631;28;20396;-76
2022/11/16 09:44:24;;;;;;;11.82;8.43;;;12.70;99.90;;;;;;5067595;28;20033;-75
2022/11/16 09:46:55;;;;;;;14.55;6.05;;;12.70;99.90;;;;;;5072014;28;20035;-76
2022/11/16 09:49:25;;;;;;;21.48;9.80;;;12.80;99.90;;;;;;5067959;28;20029;-76
2022/11/16 09:51:58;;;;;;;21.13;7.78;;;12.90;99.90;;;;;;5068633;28;20099;-76
2022/11/16 09:54:29;;;;;;;8.73;4.95;;;12.90;99.90;;;;;;5067757;28;20025;-77
2022/11/16 09:56:58;;;;;;;17.17;6.38;;;12.90;99.90;;;;;;5068835;28;20051;-77
2022/11/16 09:59:28;;;;;;;13.63;7.22;;;13.00;99.90;;;;;;5070503;28;20096;-76
2022/11/16 10:02:00;;;;;;;11.07;5.07;;;13.10;99.90;;;;;;5067034;28;20036;-77
2022/11/16 10:04:46;;;;;;;12.02;6.15;;;13.20;99.90;;;;;;5063915;28;20048;-77
2022/11/16 10:07:19;;;;;;;19.17;11.82;;;13.20;99.90;;;;;;5063933;28;20029;-77
2022/11/16 10:09:46;;;;;;;17.58;5.13;;;13.30;99.90;;;;;;5072157;28;20396;-76
2022/11/16 10:12:21;;;;;;;13.40;5.38;;;13.30;99.90;;;;;;5068345;28;20024;-77
2022/11/16 10:14:53;;;;;;;12.68;4.68;;;13.40;99.90;;;;;;5059087;28;20031;-77
2022/11/16 10:17:33;;;;;;;11.52;4.95;;;13.40;99.90;;;;;;5065031;28;20040;-77
2022/11/16 10:20:02;;;;;;;14.50;4.85;;;13.50;99.90;;;;;;5058962;28;20028;-77
2022/11/16 10:23:07;;;;;;;18.75;4.88;;;13.50;99.90;;;;;;5066691;28;20693;-77
2022/11/16 10:25:51;;;;;;;9.07;4.43;;;13.60;99.90;;;;;;5054024;28;20045;-77
2022/11/16 10:28:35;;;;;;;16.92;4.60;;;13.60;99.90;;;;;;5071393;28;20032;-77
2022/11/16 10:31:21;;;;;;;8.75;5.35;;;13.70;99.90;;;;;;5068840;28;20366;-77
2022/11/16 10:33:51;;;;;;;12.82;3.85;;;13.80;99.90;;;;;;5061366;28;20067;-77
2022/11/16 10:36:20;;;;;;;13.95;4.00;;;13.80;99.90;;;;;;5069853;28;20088;-77
2022/11/16 10:38:46;;;;;;;9.18;3.45;;;13.80;99.90;;;;;;5066750;28;20021;-77
2022/11/16 10:41:24;;;;;;;10.73;3.55;;;13.90;99.90;;;;;;5057848;28;20025;-77
2022/11/16 10:43:50;;;;;;;11.27;3.80;;;14.00;99.90;;;;;;5073221;28;20033;-78
2022/11/16 10:46:25;;;;;;;5.68;2.88;;;14.10;99.90;;;;;;5067125;28;20389;-77
2022/11/16 10:49:10;;;;;;;10.93;3.97;;;14.20;99.90;;;;;;5073183;28;20472;-77
2022/11/16 10:51:36;;;;;;;13.40;4.40;;;14.20;99.90;;;;;;5061102;28;20583;-76
2022/11/16 10:54:10;;;;;;;14.13;5.10;;;14.30;99.90;;;;;;5067645;28;20028;-78
2022/11/16 10:56:38;;;;;;;9.70;3.83;;;14.30;99.90;;;;;;5064152;28;20142;-77
2022/11/16 10:59:06;;;;;;;9.73;3.45;;;14.30;99.90;;;;;;5061043;28;20150;-77
2022/11/16 11:01:36;;;;;;;9.05;3.55;;;14.30;99.90;;;;;;5069487;28;20033;-77
2022/11/16 11:04:24;;;;;;;14.57;3.83;;;14.40;99.90;;;;;;5057572;28;20059;-78
2022/11/16 11:06:56;;;;;;;13.25;3.20;;;14.40;99.90;;;;;;5065344;28;20024;-78
2022/11/16 11:09:23;;;;;;;6.55;2.63;;;14.50;99.90;;;;;;5070961;28;20475;-77
2022/11/16 11:15:09;;;;;;;12.80;3.40;;;14.40;99.90;;;;;;5059101;28;20032;-78
2022/11/16 11:17:38;;;;;;;9.50;2.70;;;14.50;99.90;;;;;;5061735;28;20033;-77
2022/11/16 11:20:16;;;;;;;29.85;12.35;;;14.60;99.90;;;;;;5066311;28;20009;-77
2022/11/16 11:22:53;;;;;;;8.50;2.50;;;14.60;99.90;;;;;;5066838;28;20044;-78
2022/11/16 11:25:22;;;;;;;7.82;2.97;;;14.60;99.90;;;;;;5070923;28;20097;-78
2022/11/16 11:27:49;;;;;;;15.32;3.15;;;14.60;99.90;;;;;;5078286;28;20027;-77
2022/11/16 11:30:20;;;;;;;10.93;2.33;;;14.70;99.90;;;;;;5070056;28;20109;-78
2022/11/16 11:32:46;;;;;;;4.00;2.15;;;14.70;99.90;;;;;;5069726;28;20016;-78
2022/11/16 11:35:25;;;;;;;6.18;2.58;;;14.80;99.90;;;;;;5071670;28;20020;-78
2022/11/16 11:37:55;;;;;;;8.65;2.40;;;14.80;99.90;;;;;;5076285;28;20473;-79
2022/11/16 11:40:28;;;;;;;6.68;3.33;;;14.90;99.90;;;;;;5071965;28;20028;-78
2022/11/16 11:43:05;;;;;;;6.30;2.00;;;14.90;99.90;;;;;;5073626;28;20021;-78
2022/11/16 11:46:11;;;;;;;8.48;2.40;;;15.00;99.90;;;;;;5069862;28;20068;-78
2022/11/16 11:48:46;;;;;;;10.88;2.10;;;15.00;99.90;;;;;;5069851;28;20493;-78
2022/11/16 11:51:31;;;;;;;6.50;3.03;;;15.00;99.90;;;;;;5067725;28;20017;-78
2022/11/16 11:53:59;;;;;;;9.15;2.42;;;15.00;99.90;;;;;;5061960;28;20045;-77
2022/11/16 11:56:29;;;;;;;8.13;2.60;;;15.00;99.90;;;;;;5068722;28;20025;-77
2022/11/16 11:58:55;;;;;;;11.07;2.60;;;15.10;99.90;;;;;;5060821;28;20040;-78
2022/11/16 12:01:47;;;;;;;11.07;3.47;;;15.10;99.90;;;;;;5084483;28;20049;-78
2022/11/16 12:05:00;;;;;;;8.40;3.00;;;15.10;99.90;;;;;;5072475;28;20108;-77
2022/11/16 12:07:26;;;;;;;9.88;2.55;;;15.20;99.90;;;;;;5070598;28;20360;-78
2022/11/16 12:10:15;;;;;;;9.80;2.40;;;15.10;99.90;;;;;;5072457;28;20125;-77
2022/11/16 12:12:55;;;;;;;6.20;2.30;;;15.20;99.90;;;;;;5074816;28;20028;-78
2022/11/16 12:15:35;;;;;;;;;;;15.20;99.90;;;;;;5072650;28;20024;-77
2022/11/16 12:18:19;;;;;;;8.32;3.35;;;15.40;99.90;;;;;;5071052;28;19958;-77
2022/11/16 12:20:56;;;;;;;7.72;2.42;;;15.40;99.90;;;;;;5063747;28;20035;-78
2022/11/16 12:23:43;;;;;;;8.27;2.67;;;15.40;99.90;;;;;;5063512;28;20024;-77
2022/11/16 12:26:41;;;;;;;7.13;2.10;;;15.40;99.90;;;;;;5060461;28;20108;-78
2022/11/16 12:29:07;;;;;;;5.95;2.42;;;15.40;99.90;;;;;;5070765;28;20020;-77
2022/11/16 12:31:48;;;;;;;7.88;2.22;;;15.30;99.90;;;;;;5071644;28;20028;-77
2022/11/16 12:34:19;;;;;;;;;;;15.30;99.90;;;;;;5060994;28;20032;-78
2022/11/16 12:36:51;;;;;;;11.13;2.53;;;15.30;99.90;;;;;;5067975;28;20281;-78
2022/11/16 12:39:34;;;;;;;14.10;2.60;;;15.40;99.90;;;;;;5065067;28;20028;-77
2022/11/16 12:42:17;;;;;;;6.18;2.13;;;15.40;99.90;;;;;;5060817;28;20051;-78
2022/11/16 12:45:11;;;;;;;8.73;3.00;;;15.40;99.90;;;;;;5071810;28;20530;-77
2022/11/16 12:48:22;;;;;;;8.85;2.90;;;15.40;99.90;;;;;;5069823;28;20029;-78
2022/11/16 12:51:13;;;;;;;8.13;2.30;;;15.30;99.90;;;;;;5067530;28;20040;-77
2022/11/16 12:53:45;;;;;;;5.57;2.55;;;15.30;99.90;;;;;;5075369;28;20048;-77
2022/11/16 12:56:35;;;;;;;8.27;2.45;;;15.30;99.90;;;;;;5065647;28;20029;-78
2022/11/16 12:59:22;;;;;;;8.57;2.70;;;15.40;99.90;;;;;;5059900;28;20104;-78
2022/11/16 13:02:07;;;;;;;15.65;2.53;;;15.40;99.90;;;;;;5065016;28;20096;-78
2022/11/16 13:04:53;;;;;;;7.95;3.13;;;15.50;99.90;;;;;;5058353;28;20477;-77
2022/11/16 13:07:26;;;;;;;9.60;2.25;;;15.50;99.90;;;;;;5076106;28;20021;-77
2022/11/16 13:10:01;;;;;;;3.85;1.90;;;15.60;99.90;;;;;;5062005;28;20029;-78
2022/11/16 13:12:29;;;;;;;6.20;2.03;;;15.60;99.90;;;;;;5062399;28;20020;-77
2022/11/16 13:14:57;;;;;;;6.85;2.38;;;15.50;99.90;;;;;;5061596;28;20044;-78
2022/11/16 13:17:37;;;;;;;6.50;2.00;;;15.50;99.90;;;;;;5065554;28;20026;-78
2022/11/16 13:20:14;;;;;;;5.80;2.00;;;15.50;99.90;;;;;;5061941;28;20025;-77
2022/11/16 13:23:02;;;;;;;3.85;2.03;;;15.50;99.90;;;;;;5066974;28;20040;-78
2022/11/16 13:25:38;;;;;;;6.75;2.25;;;15.50;99.90;;;;;;5065703;28;20429;-76
2022/11/16 13:28:20;;;;;;;4.55;1.65;;;15.50;99.90;;;;;;5071781;28;20078;-77
2022/11/16 13:31:12;;;;;;;5.70;2.75;;;15.60;99.90;;;;;;5062269;28;20036;-77
2022/11/16 13:33:52;;;;;;;5.35;2.22;;;15.50;99.90;;;;;;5074724;28;20020;-79
2022/11/16 13:36:45;;;;;;;9.27;2.43;;;15.50;99.90;;;;;;5068920;28;20111;-79
2022/11/16 13:39:19;;;;;;;11.95;1.90;;;15.50;99.90;;;;;;5067785;28;20025;-79
2022/11/16 13:42:06;;;;;;;4.25;2.00;;;15.40;99.90;;;;;;5070091;28;20024;-79
2022/11/16 13:44:33;;;;;;;5.00;2.10;;;15.40;99.90;;;;;;5069733;28;20507;-79